Terminal Aerodrome Forecast
Issued by NWS Des Moines, IA

Home | Current Version | Previous Version | Text Only | Print | Product List | Glossary On
Versions: 1 2 3 4 5 6 7 8 9 10 11 12 13 14 15 16 17 18 19 20 21 22 23 24 25 26 27 28 29 30 31 32 33 34 35 36 37 38 39 40 41 42 43 44 45 46 47 48 49 50
000
FTUS43 KDMX 311734
TAFALO
TAF
KALO 311734Z 3118/0118 18010KT P6SM SCT030
     FM311900 18010G17KT P6SM BKN040
     FM010000 16004KT P6SM FEW040
     FM010500 18003KT 5SM BR SCT020
      TEMPO 0109/0112 1SM BR SCT006
     FM011500 20011KT P6SM SCT025=

USA.gov is the U.S. government's official web portal to all federal, state and local government web resources and services.